Wan Hai 501 — S6AS7 — position and weather

sailwx.info

Track history (hours):
 
Tides and Currents Weather Stations Pressure Air Temp Water Temp Dewpoint Dewpoint Depression Visibility Wind Speed Wind Dir Waves Ship Positions

Wan Hai 501

Last reported at 2017-Feb-06 06:06 UTC. Time now 2017-Feb-19 16:57 UTC.
Position N 01°57' E 102°17'.
Warning: this ship's position is 13 days out of date.

Length 269 m; draft 11.1 m.

Type: Cargo ship. MMSI: 563382000.

Date/timePositionNaut miles runAvg speedWind from/ knotsBaromVisibWave heightAir tempDewpointWater temp
2017-Feb-06 06:06N 01°57' E 102°17'915.5
2017-Feb-06 05:34N 01°53' E 102°24'1615.9
2017-Feb-06 04:33N 01°46' E 102°39'7116.1
2017-Feb-06 00:06N 01°10' E 103°41'813.8
2017-Feb-05 23:33N 01°11' E 103°48'5 5.4
2017-Feb-05 22:33N 01°16' E 103°51'0 0.3
2017-Feb-05 21:30N 01°16' E 103°51'0 0.0
2017-Feb-05 20:33N 01°16' E 103°51'0 0.1
2017-Feb-05 19:33N 01°16' E 103°50'0 0.1
2017-Feb-05 18:33N 01°16' E 103°51'0 0.0
2017-Feb-05 17:33N 01°16' E 103°51'0 0.0
2017-Feb-05 16:27N 01°16' E 103°51'0 0.0
2017-Feb-05 15:33N 01°16' E 103°51'0 0.0
2017-Feb-05 14:33N 01°16' E 103°51'0 0.0
2017-Feb-05 13:33N 01°16' E 103°51'0 0.0
2017-Feb-05 12:33N 01°16' E 103°51'0 0.0
2017-Feb-05 11:33N 01°16' E 103°51'0 0.0
2017-Feb-05 10:33N 01°16' E 103°51'0 0.0
2017-Feb-05 09:30N 01°16' E 103°51'0 0.0
2017-Feb-05 08:33N 01°16' E 103°51'0 0.0
2017-Feb-05 07:33N 01°16' E 103°51'0 0.0
2017-Feb-05 06:33N 01°16' E 103°51'0 0.0
2017-Feb-05 05:33N 01°16' E 103°51'1 0.8
2017-Feb-05 04:34N 01°15' E 103°51'5 4.7
2017-Feb-05 03:33N 01°14' E 103°56'7 6.8
2017-Feb-05 02:34N 01°16' E 104°02'  
2017-Jan-28 12:22N 34°59' E 139°36'1417.5
2017-Jan-28 11:33N 35°11' E 139°46'1211.6
2017-Jan-28 10:33N 35°22' E 139°42'4 4.2
2017-Jan-28 09:32N 35°26' E 139°41'0 0.0
2017-Jan-28 08:32N 35°26' E 139°41'0 0.0
2017-Jan-28 07:32N 35°26' E 139°41'0 0.0
2017-Jan-28 06:32N 35°26' E 139°41'0 0.0
2017-Jan-28 05:32N 35°26' E 139°41'0 0.0
2017-Jan-28 04:32N 35°26' E 139°41'0 0.0
2017-Jan-28 03:32N 35°26' E 139°41'0 0.0
2017-Jan-28 02:32N 35°26' E 139°41'0 0.0
2017-Jan-28 01:32N 35°26' E 139°41'0 0.0
2017-Jan-28 00:32N 35°26' E 139°41'0 0.0
2017-Jan-27 23:32N 35°26' E 139°41'0 0.0
2017-Jan-27 22:32N 35°26' E 139°41'0 0.0
2017-Jan-27 21:32N 35°26' E 139°41'0 0.0
2017-Jan-27 20:32N 35°26' E 139°41'0 0.0
2017-Jan-27 19:32N 35°26' E 139°41'0 0.0
2017-Jan-27 18:32N 35°26' E 139°41'0 0.0
2017-Jan-27 17:32N 35°26' E 139°41'0 0.0
2017-Jan-27 16:32N 35°26' E 139°41'0 0.0
2017-Jan-27 15:32N 35°26' E 139°41'0 0.0
2017-Jan-27 14:32N 35°26' E 139°41'0 0.0
2017-Jan-27 13:32N 35°26' E 139°41'0 0.0
2017-Jan-27 12:32N 35°26' E 139°41'1 1.4
2017-Jan-27 11:34N 35°26' E 139°43'9 9.4
2017-Jan-27 10:34N 35°34' E 139°50'4 4.1
2017-Jan-27 09:32N 35°36' E 139°46'0 0.0
2017-Jan-27 08:26N 35°36' E 139°46'0 0.0
2017-Jan-27 07:26N 35°36' E 139°46'0 0.0
2017-Jan-27 06:32N 35°36' E 139°46'  
Track history (hours):
 
Tides and Currents Weather Stations Pressure Air Temp Water Temp Dewpoint Dewpoint Depression Visibility Wind Speed Wind Dir Waves Ship Positions

Wan Hai 501

Last reported at 2017-Feb-06 06:06 UTC. Time now 2017-Feb-19 16:57 UTC.
Position N 01°57' E 102°17'.
Warning: this ship's position is 13 days out of date.

Length 269 m; draft 11.1 m.

Type: Cargo ship. MMSI: 563382000.

Date/timePositionNaut miles runAvg speedWind from/ knotsBaromVisibWave heightAir tempDewpointWater temp
2017-Feb-06 06:06N 01°57' E 102°17'915.5
2017-Feb-06 05:34N 01°53' E 102°24'1615.9
2017-Feb-06 04:33N 01°46' E 102°39'7116.1
2017-Feb-06 00:06N 01°10' E 103°41'813.8
2017-Feb-05 23:33N 01°11' E 103°48'5 5.4
2017-Feb-05 22:33N 01°16' E 103°51'0 0.3
2017-Feb-05 21:30N 01°16' E 103°51'0 0.0
2017-Feb-05 20:33N 01°16' E 103°51'0 0.1
2017-Feb-05 19:33N 01°16' E 103°50'0 0.1
2017-Feb-05 18:33N 01°16' E 103°51'0 0.0
2017-Feb-05 17:33N 01°16' E 103°51'0 0.0
2017-Feb-05 16:27N 01°16' E 103°51'0 0.0
2017-Feb-05 15:33N 01°16' E 103°51'0 0.0
2017-Feb-05 14:33N 01°16' E 103°51'0 0.0
2017-Feb-05 13:33N 01°16' E 103°51'0 0.0
2017-Feb-05 12:33N 01°16' E 103°51'0 0.0
2017-Feb-05 11:33N 01°16' E 103°51'0 0.0
2017-Feb-05 10:33N 01°16' E 103°51'0 0.0
2017-Feb-05 09:30N 01°16' E 103°51'0 0.0
2017-Feb-05 08:33N 01°16' E 103°51'0 0.0
2017-Feb-05 07:33N 01°16' E 103°51'0 0.0
2017-Feb-05 06:33N 01°16' E 103°51'0 0.0
2017-Feb-05 05:33N 01°16' E 103°51'1 0.8
2017-Feb-05 04:34N 01°15' E 103°51'5 4.7
2017-Feb-05 03:33N 01°14' E 103°56'7 6.8
2017-Feb-05 02:34N 01°16' E 104°02'  
2017-Jan-28 12:22N 34°59' E 139°36'1417.5
2017-Jan-28 11:33N 35°11' E 139°46'1211.6
2017-Jan-28 10:33N 35°22' E 139°42'4 4.2
2017-Jan-28 09:32N 35°26' E 139°41'0 0.0
2017-Jan-28 08:32N 35°26' E 139°41'0 0.0
2017-Jan-28 07:32N 35°26' E 139°41'0 0.0
2017-Jan-28 06:32N 35°26' E 139°41'0 0.0
2017-Jan-28 05:32N 35°26' E 139°41'0 0.0
2017-Jan-28 04:32N 35°26' E 139°41'0 0.0
2017-Jan-28 03:32N 35°26' E 139°41'0 0.0
2017-Jan-28 02:32N 35°26' E 139°41'0 0.0
2017-Jan-28 01:32N 35°26' E 139°41'0 0.0
2017-Jan-28 00:32N 35°26' E 139°41'0 0.0
2017-Jan-27 23:32N 35°26' E 139°41'0 0.0
2017-Jan-27 22:32N 35°26' E 139°41'0 0.0
2017-Jan-27 21:32N 35°26' E 139°41'0 0.0
2017-Jan-27 20:32N 35°26' E 139°41'0 0.0
2017-Jan-27 19:32N 35°26' E 139°41'0 0.0
2017-Jan-27 18:32N 35°26' E 139°41'0 0.0
2017-Jan-27 17:32N 35°26' E 139°41'0 0.0
2017-Jan-27 16:32N 35°26' E 139°41'0 0.0
2017-Jan-27 15:32N 35°26' E 139°41'0 0.0
2017-Jan-27 14:32N 35°26' E 139°41'0 0.0
2017-Jan-27 13:32N 35°26' E 139°41'0 0.0
2017-Jan-27 12:32N 35°26' E 139°41'1 1.4
2017-Jan-27 11:34N 35°26' E 139°43'9 9.4
2017-Jan-27 10:34N 35°34' E 139°50'4 4.1
2017-Jan-27 09:32N 35°36' E 139°46'0 0.0
2017-Jan-27 08:26N 35°36' E 139°46'0 0.0
2017-Jan-27 07:26N 35°36' E 139°46'0 0.0
2017-Jan-27 06:32N 35°36' E 139°46'  

Dump ship's entire track history